Time;durP1;ratioP1;P1;durP2;ratioP2;P2;SDS_P1;SDS_P2;PMS_P1;PMS_P2;Temp;Humidity;BMP_temperature;BMP_pressure;BME280_temperature;BME280_humidity;BME280_pressure;Samples;Min_cycle;Max_cycle;Signal;HPM_P1;HPM_P2
2023/03/27 00:00:26;;;;;;;0.50;0.50;;;3.50;99.90;2.50;98856;;;;584931;241;25136;-74
2023/03/27 00:02:51;;;;;;;1.20;0.50;;;3.50;99.90;2.40;98839;;;;584956;241;24070;-73
2023/03/27 00:05:22;;;;;;;4.43;0.70;;;3.40;99.90;2.40;98850;;;;584925;241;24082;-74
2023/03/27 00:07:47;;;;;;;2.40;0.53;;;3.30;99.90;2.20;98843;;;;584586;241;24148;-75
2023/03/27 00:10:15;;;;;;;0.80;0.80;;;3.20;99.90;2.10;98844;;;;595094;237;25486;-74
2023/03/27 00:12:46;;;;;;;0.57;0.57;;;3.00;99.90;1.90;98841;;;;580964;240;34980;-75
2023/03/27 00:15:16;;;;;;;3.43;0.70;;;2.90;99.90;1.80;98838;;;;585879;240;24077;-75
2023/03/27 00:17:45;;;;;;;0.97;0.70;;;2.60;99.90;1.70;98831;;;;585790;240;24140;-75
2023/03/27 00:20:15;;;;;;;0.40;0.40;;;2.60;99.90;1.50;98830;;;;585314;241;24058;-75
2023/03/27 00:22:43;;;;;;;0.50;0.47;;;2.50;99.90;1.40;98835;;;;585485;241;25181;-75
2023/03/27 00:25:11;;;;;;;1.00;0.70;;;2.40;99.90;1.30;98830;;;;585313;241;24101;-74
2023/03/27 00:27:40;;;;;;;1.40;0.82;;;2.20;99.90;1.20;98834;;;;580329;241;35061;-75
2023/03/27 00:30:08;;;;;;;0.80;0.80;;;2.10;99.90;1.00;98825;;;;584943;241;24359;-75
2023/03/27 00:32:37;;;;;;;1.70;0.90;;;1.90;99.90;1.00;98823;;;;590722;241;24084;-76
2023/03/27 00:35:09;;;;;;;0.80;0.80;;;1.80;99.90;0.90;98818;;;;585177;241;24059;-74
2023/03/27 00:37:33;;;;;;;1.67;1.13;;;1.80;99.90;0.80;98825;;;;584889;241;24085;-73
2023/03/27 00:40:06;;;;;;;2.50;1.00;;;1.80;99.90;0.70;98823;;;;585645;241;24093;-75
2023/03/27 00:42:29;;;;;;;2.77;1.03;;;1.70;99.90;0.70;98812;;;;594203;241;24116;-74
2023/03/27 00:44:57;;;;;;;0.70;0.70;;;1.60;99.90;0.60;98819;;;;585531;241;24108;-75
2023/03/27 00:47:29;;;;;;;1.50;1.20;;;1.50;99.90;0.50;98820;;;;585321;241;24055;-75
2023/03/27 00:49:56;;;;;;;1.27;1.17;;;1.50;99.90;0.40;98819;;;;585288;241;24079;-75
2023/03/27 00:52:28;;;;;;;1.33;1.20;;;1.40;99.90;0.40;98818;;;;585305;241;24081;-77
2023/03/27 00:54:52;;;;;;;1.57;1.10;;;1.40;99.90;0.30;98814;;;;585299;241;24178;-76
2023/03/27 00:57:23;;;;;;;0.90;0.90;;;1.30;99.90;0.30;98815;;;;585277;241;24120;-78
2023/03/27 00:59:48;;;;;;;1.30;1.10;;;1.30;99.90;0.20;98804;;;;592668;241;24086;-76
2023/03/27 01:02:18;;;;;;;1.27;1.27;;;1.20;99.90;0.10;98814;;;;585186;241;24075;-77
2023/03/27 01:04:47;;;;;;;1.00;1.00;;;1.20;99.90;0.10;98803;;;;593772;240;24089;-74
2023/03/27 01:07:11;;;;;;;3.13;1.53;;;1.10;99.90;0.10;98808;;;;584860;241;24094;-74
2023/03/27 01:09:43;;;;;;;1.50;1.20;;;1.00;99.90;0.00;98805;;;;594033;238;24063;-75
2023/03/27 01:12:29;;;;;;;1.37;1.27;;;1.00;99.90;0.10;98809;;;;584577;241;24109;-76
2023/03/27 01:15:19;;;;;;;1.43;1.30;;;1.00;99.90;0.00;98802;;;;593864;240;24117;-74
2023/03/27 01:18:10;;;;;;;1.17;1.00;;;1.00;99.90;0.00;98809;;;;594103;241;24119;-73
2023/03/27 01:21:04;;;;;;;2.65;1.48;;;1.00;99.90;-0.10;98804;;;;585876;239;35106;-75
2023/03/27 01:23:49;;;;;;;4.20;1.43;;;0.90;99.90;-0.10;98810;;;;594812;240;24095;-73
2023/03/27 01:26:56;;;;;;;1.30;1.20;;;0.90;99.90;-0.10;98806;;;;585515;240;24105;-74
2023/03/27 01:29:53;;;;;;;2.43;1.40;;;0.90;99.90;-0.10;98816;;;;585719;240;24070;-74
2023/03/27 01:32:51;;;;;;;3.03;1.87;;;0.90;99.90;-0.20;98814;;;;593684;238;24108;-75
2023/03/27 01:35:49;;;;;;;1.40;1.30;;;0.80;99.90;-0.30;98812;;;;585896;241;24052;-74
2023/03/27 01:38:51;;;;;;;1.50;1.20;;;0.70;99.90;-0.30;98819;;;;585851;241;24080;-74
2023/03/27 01:41:28;;;;;;;1.40;1.27;;;0.70;99.90;-0.30;98821;;;;585721;241;24072;-79
2023/03/27 01:44:14;;;;;;;1.70;1.30;;;0.70;99.90;-0.30;98817;;;;584730;241;24104;-79
2023/03/27 01:46:42;;;;;;;2.63;1.47;;;0.70;99.90;-0.20;98814;;;;585146;241;24094;-74
2023/03/27 01:49:28;;;;;;;1.77;1.20;;;0.80;99.90;-0.20;98812;;;;585015;241;24066;-74
2023/03/27 01:51:56;;;;;;;1.00;1.00;;;0.80;99.90;-0.20;98817;;;;585109;241;24054;-75
2023/03/27 01:54:32;;;;;;;1.10;1.10;;;0.80;99.90;-0.10;98823;;;;584791;241;24057;-74
2023/03/27 01:57:01;;;;;;;2.07;1.20;;;0.80;99.90;-0.10;98815;;;;584922;241;24161;-75
2023/03/27 01:59:28;;;;;;;1.87;1.50;;;0.90;99.90;-0.10;98823;;;;585157;241;24093;-76
2023/03/27 02:02:03;;;;;;;1.23;1.20;;;0.90;99.90;-0.10;98823;;;;585279;241;24093;-76
2023/03/27 02:04:37;;;;;;;1.20;1.20;;;0.90;99.90;-0.10;98827;;;;584979;241;24093;-75
2023/03/27 02:07:06;;;;;;;1.27;1.27;;;0.90;99.90;-0.10;98835;;;;594145;240;24075;-74
2023/03/27 02:09:36;;;;;;;1.37;1.33;;;0.90;99.90;-0.10;98830;;;;585237;241;24129;-75
2023/03/27 02:12:10;;;;;;;1.70;1.27;;;0.90;99.90;-0.10;98840;;;;585257;241;24126;-75
2023/03/27 02:14:38;;;;;;;2.00;1.20;;;0.90;99.90;-0.10;98836;;;;583884;241;24106;-74
2023/03/27 02:17:08;;;;;;;1.87;1.33;;;0.90;99.90;-0.10;98839;;;;585259;241;24053;-74
2023/03/27 02:19:37;;;;;;;1.97;1.40;;;0.90;99.90;-0.10;98846;;;;585168;241;24086;-75
2023/03/27 02:22:05;;;;;;;1.40;1.30;;;0.90;99.90;-0.10;98846;;;;585229;241;24159;-75
2023/03/27 02:24:33;;;;;;;1.07;1.00;;;0.90;99.90;-0.10;98852;;;;585307;241;24113;-75
2023/03/27 02:27:02;;;;;;;1.93;1.30;;;0.90;99.90;-0.10;98845;;;;585318;241;24102;-75
2023/03/27 02:29:59;;;;;;;1.37;1.27;;;0.90;99.90;0.00;98852;;;;584530;241;24099;-75
2023/03/27 02:32:48;;;;;;;1.33;1.30;;;0.90;99.90;0.00;98857;;;;593918;240;24052;-76
2023/03/27 02:35:31;;;;;;;1.90;1.80;;;1.00;99.90;0.00;98862;;;;585984;240;24183;-75
2023/03/27 02:38:02;;;;;;;1.50;1.40;;;1.00;99.90;0.00;98864;;;;585742;240;24109;-78
2023/03/27 02:40:50;;;;;;;1.87;1.77;;;1.00;99.90;0.10;98864;;;;583143;240;24051;-75
2023/03/27 02:43:21;;;;;;;1.57;1.47;;;1.10;99.90;0.20;98866;;;;585734;241;24090;-75
2023/03/27 02:45:58;;;;;;;1.40;1.30;;;1.20;99.90;0.30;98868;;;;585643;241;24076;-75
2023/03/27 02:48:33;;;;;;;1.37;1.30;;;1.30;99.90;0.40;98889;;;;585365;241;24084;-75
2023/03/27 02:51:03;;;;;;;1.60;1.50;;;1.30;99.90;0.40;98882;;;;594854;240;24091;-75
2023/03/27 02:53:31;;;;;;;1.57;1.47;;;1.40;99.90;0.40;98883;;;;584074;241;24113;-75
2023/03/27 02:55:59;;;;;;;1.83;1.70;;;1.50;99.90;0.50;98894;;;;585341;241;24054;-75
2023/03/27 02:58:43;;;;;;;2.90;1.33;;;1.40;99.90;0.50;98907;;;;585186;241;24123;-75
2023/03/27 03:01:10;;;;;;;1.87;1.30;;;1.50;99.90;0.60;98917;;;;584799;241;24097;-73
2023/03/27 03:03:58;;;;;;;1.50;1.40;;;1.50;99.90;0.70;98915;;;;585225;241;24059;-76
2023/03/27 03:06:30;;;;;;;1.50;1.40;;;1.70;99.90;0.70;98916;;;;584981;241;24085;-74
2023/03/27 03:09:08;;;;;;;1.57;1.47;;;1.70;99.90;0.80;98923;;;;585069;241;24097;-75
2023/03/27 03:11:26;;;;;;;1.93;1.60;;;1.70;99.90;0.80;98920;;;;584466;241;24128;-76
2023/03/27 03:13:55;;;;;;;2.77;1.43;;;1.80;99.90;0.90;98931;;;;585086;241;24106;-74
2023/03/27 03:16:23;;;;;;;1.50;1.40;;;1.80;99.90;0.90;98938;;;;594059;241;24071;-75
2023/03/27 03:18:52;;;;;;;2.00;1.90;;;1.90;99.90;0.90;98948;;;;585098;241;24092;-75
2023/03/27 03:21:20;;;;;;;1.80;1.70;;;1.90;99.90;0.90;98941;;;;585016;241;24064;-76
2023/03/27 03:23:47;;;;;;;2.10;1.90;;;1.90;99.90;1.00;98949;;;;584811;241;25141;-74
2023/03/27 03:26:15;;;;;;;1.83;1.73;;;1.90;99.90;1.00;98959;;;;584965;241;24108;-75
2023/03/27 03:28:46;;;;;;;3.07;2.20;;;1.90;99.90;1.00;98957;;;;584790;241;24091;-75
2023/03/27 03:31:16;;;;;;;3.87;2.90;;;1.90;99.90;1.00;98957;;;;584951;241;24203;-74
2023/03/27 03:33:40;;;;;;;3.93;2.77;;;1.90;99.90;1.00;98965;;;;584796;241;24070;-76
2023/03/27 03:36:11;;;;;;;4.75;3.60;;;2.00;99.90;1.00;98967;;;;579757;241;35074;-74
2023/03/27 03:38:39;;;;;;;5.03;1.40;;;2.00;99.90;1.10;98964;;;;593338;241;24059;-74
2023/03/27 03:41:07;;;;;;;1.63;1.43;;;2.00;99.90;1.10;98973;;;;584552;241;24092;-78
2023/03/27 03:43:36;;;;;;;1.40;1.30;;;2.00;99.90;1.10;98969;;;;585187;241;24079;-76
2023/03/27 03:46:01;;;;;;;1.57;1.47;;;2.00;99.90;1.10;98976;;;;586613;240;24146;-78
2023/03/27 03:48:29;;;;;;;2.13;1.93;;;2.00;99.90;1.10;98975;;;;586462;240;24141;-75
2023/03/27 03:51:00;;;;;;;2.07;1.70;;;2.10;99.90;1.10;98974;;;;586380;240;24068;-78
2023/03/27 03:53:25;;;;;;;1.93;1.83;;;2.10;99.90;1.10;98976;;;;591433;241;24058;-80
2023/03/27 03:55:54;;;;;;;2.47;2.27;;;2.10;99.90;1.20;98974;;;;586042;241;25098;-76
2023/03/27 03:58:22;;;;;;;2.37;2.17;;;2.10;99.90;1.20;98972;;;;585699;241;24102;-77
2023/03/27 04:00:50;;;;;;;1.43;1.33;;;2.10;99.90;1.20;98967;;;;585656;241;24099;-76
2023/03/27 04:03:18;;;;;;;1.90;1.40;;;2.20;99.90;1.20;98976;;;;584834;241;24128;-76
2023/03/27 04:05:46;;;;;;;3.00;1.40;;;2.20;99.90;1.20;98974;;;;585000;241;24096;-77
2023/03/27 04:08:17;;;;;;;2.57;1.40;;;2.20;99.90;1.30;98983;;;;585315;241;24059;-76
2023/03/27 04:10:42;;;;;;;2.53;1.93;;;2.20;99.90;1.30;98988;;;;584806;241;24101;-76
2023/03/27 04:13:10;;;;;;;1.60;1.50;;;2.20;99.90;1.30;98986;;;;585267;241;24105;-75
2023/03/27 04:15:38;;;;;;;1.63;1.53;;;2.20;99.90;1.30;98983;;;;585223;241;24103;-76
2023/03/27 04:18:06;;;;;;;2.20;1.93;;;2.30;99.90;1.30;98974;;;;585596;241;24054;-78
2023/03/27 04:20:34;;;;;;;2.30;2.07;;;2.20;99.90;1.30;98983;;;;585167;241;24096;-77
2023/03/27 04:23:05;;;;;;;3.72;2.80;;;2.30;99.90;1.30;98985;;;;579633;241;35148;-75
2023/03/27 04:25:30;;;;;;;2.10;1.90;;;2.30;99.90;1.30;98992;;;;584681;241;24113;-79
2023/03/27 04:28:01;;;;;;;2.07;1.97;;;2.20;99.90;1.30;98996;;;;584800;241;24069;-75
2023/03/27 04:30:27;;;;;;;1.40;1.40;;;2.20;99.90;1.30;99000;;;;594068;241;24164;-75
2023/03/27 04:32:58;;;;;;;1.73;1.63;;;2.20;99.90;1.30;98998;;;;584843;241;24091;-75
2023/03/27 04:35:22;;;;;;;2.43;1.97;;;2.20;99.90;1.20;98994;;;;593692;241;24079;-75
2023/03/27 04:37:51;;;;;;;2.33;2.13;;;2.20;99.90;1.20;99001;;;;584944;241;24076;-74
2023/03/27 04:40:18;;;;;;;1.93;1.83;;;2.20;99.90;1.20;98994;;;;584700;241;24113;-75
2023/03/27 04:42:49;;;;;;;3.13;1.87;;;2.10;99.90;1.10;98999;;;;584988;241;24172;-80
2023/03/27 04:45:19;;;;;;;2.47;1.80;;;2.10;99.90;1.00;98986;;;;585217;241;24057;-77
2023/03/27 04:47:43;;;;;;;2.60;2.23;;;2.00;99.90;1.00;98998;;;;585030;241;24128;-79
2023/03/27 04:50:13;;;;;;;3.60;3.00;;;1.90;99.90;0.90;98998;;;;585251;241;24089;-80
2023/03/27 04:52:38;;;;;;;2.03;1.93;;;1.90;99.90;0.80;98986;;;;585052;236;24057;-80
2023/03/27 04:55:07;;;;;;;3.40;3.10;;;1.80;99.90;0.80;98984;;;;585427;241;24061;-79
2023/03/27 04:57:36;;;;;;;3.30;3.00;;;1.80;99.90;0.80;98987;;;;592287;240;24075;-77
2023/03/27 05:00:14;;;;;;;4.43;3.43;;;2.10;99.90;0.80;98991;;;;586321;240;24092;-79
2023/03/27 05:02:32;;;;;;;4.77;3.90;;;1.70;99.90;0.80;98987;;;;585501;240;24109;-79
2023/03/27 05:05:01;;;;;;;4.53;4.13;;;1.80;99.90;0.80;98982;;;;586072;241;24092;-78
2023/03/27 05:07:29;;;;;;;3.87;3.50;;;1.80;99.90;0.80;98984;;;;585771;241;24170;-76
2023/03/27 05:09:56;;;;;;;5.23;4.73;;;1.80;99.90;0.90;98989;;;;585783;241;24115;-76
2023/03/27 05:12:23;;;;;;;8.33;6.73;;;1.80;99.90;1.00;98996;;;;585769;241;24059;-77
2023/03/27 05:14:51;;;;;;;8.97;6.10;;;1.90;99.90;1.00;99002;;;;585580;241;24111;-76
2023/03/27 05:17:19;;;;;;;7.87;6.23;;;2.00;99.90;1.20;99018;;;;585582;241;24062;-81
2023/03/27 05:19:47;;;;;;;4.57;4.07;;;2.10;99.90;1.40;99020;;;;585517;241;24083;-76
2023/03/27 05:22:15;;;;;;;4.77;4.27;;;2.30;99.90;1.60;99021;;;;585553;241;24115;-78
2023/03/27 05:24:43;;;;;;;3.27;2.70;;;2.60;99.90;1.70;99025;;;;585530;241;24101;-79
2023/03/27 05:27:11;;;;;;;3.67;2.43;;;2.60;99.90;1.80;99023;;;;585574;241;24099;-77
2023/03/27 05:29:40;;;;;;;3.20;2.90;;;2.90;99.90;1.90;99029;;;;580514;241;35113;-80
2023/03/27 05:32:08;;;;;;;2.90;2.53;;;2.90;99.90;2.10;99032;;;;585384;241;24105;-79
2023/03/27 05:34:37;;;;;;;2.00;1.80;;;3.00;99.90;2.30;99031;;;;585367;241;24101;-79
2023/03/27 05:37:05;;;;;;;2.17;1.97;;;3.20;99.90;2.40;99035;;;;585211;241;24054;-77
2023/03/27 05:39:32;;;;;;;3.50;2.13;;;3.40;99.90;2.60;99038;;;;585318;241;24032;-78
2023/03/27 05:42:00;;;;;;;2.10;1.90;;;3.70;99.90;2.80;99040;;;;585051;241;24128;-77
2023/03/27 05:44:28;;;;;;;5.80;2.63;;;3.70;99.90;3.00;99041;;;;584838;241;24120;-78
2023/03/27 05:46:56;;;;;;;2.90;2.00;;;3.90;99.90;3.10;99048;;;;585350;241;24061;-74
2023/03/27 05:49:24;;;;;;;3.53;2.43;;;4.00;99.90;3.20;99053;;;;585312;241;24135;-75
2023/03/27 05:51:53;;;;;;;3.80;2.63;;;4.10;99.90;3.10;99056;;;;585323;241;25098;-76
2023/03/27 05:54:20;;;;;;;4.50;1.93;;;4.10;99.90;3.10;99055;;;;585362;241;24065;-76
2023/03/27 05:56:48;;;;;;;3.83;2.17;;;4.10;99.90;3.10;99060;;;;585309;241;24081;-75
2023/03/27 05:59:18;;;;;;;1.93;1.80;;;4.10;99.90;3.10;99052;;;;585060;241;24158;-76
2023/03/27 06:01:44;;;;;;;4.93;2.43;;;4.00;99.90;3.10;99059;;;;584896;241;24111;-76
2023/03/27 06:04:12;;;;;;;3.87;3.20;;;4.00;99.90;3.10;99059;;;;579784;241;35116;-77
2023/03/27 06:06:40;;;;;;;4.73;3.00;;;4.10;99.90;3.10;99057;;;;584924;241;24061;-75
2023/03/27 06:09:09;;;;;;;1.90;1.63;;;4.10;99.90;3.10;99058;;;;586398;240;24090;-76
2023/03/27 06:11:37;;;;;;;2.57;2.30;;;4.10;99.90;3.10;99071;;;;586056;240;24057;-74
2023/03/27 06:14:04;;;;;;;2.80;2.33;;;4.10;99.90;3.20;99071;;;;585695;240;24107;-75
2023/03/27 06:16:36;;;;;;;2.10;1.90;;;4.10;99.90;3.20;99078;;;;585746;236;25110;-75
2023/03/27 06:19:01;;;;;;;3.77;1.97;;;4.20;99.90;3.20;99085;;;;585267;241;24124;-74
2023/03/27 06:21:28;;;;;;;3.00;2.53;;;4.20;99.90;3.30;99086;;;;585356;241;24062;-77
2023/03/27 06:23:56;;;;;;;2.73;2.27;;;4.20;99.90;3.30;99094;;;;585562;241;24057;-75
2023/03/27 06:26:26;;;;;;;3.23;2.70;;;3.80;99.90;3.40;99098;;;;585127;241;24121;-75
2023/03/27 06:28:52;;;;;;;4.27;2.93;;;4.30;99.90;3.40;99086;;;;585172;241;24073;-74
2023/03/27 06:31:20;;;;;;;2.73;2.53;;;4.30;99.90;3.50;99100;;;;585254;241;24057;-74
2023/03/27 06:33:48;;;;;;;3.78;3.15;;;4.40;99.90;3.40;99092;;;;579958;241;35294;-76
2023/03/27 06:36:16;;;;;;;4.90;2.40;;;4.40;99.90;3.30;99100;;;;585319;241;24070;-77
2023/03/27 06:38:44;;;;;;;2.43;2.20;;;4.30;99.90;3.30;99102;;;;585261;241;24096;-75
2023/03/27 06:41:12;;;;;;;3.27;2.20;;;4.30;99.90;3.40;99102;;;;585342;241;24061;-80
2023/03/27 06:43:44;;;;;;;3.80;2.63;;;4.30;99.90;3.40;99106;;;;585245;241;24091;-76
2023/03/27 06:46:09;;;;;;;4.70;3.13;;;4.30;99.90;3.40;99105;;;;592974;241;24101;-79
2023/03/27 06:48:38;;;;;;;2.67;2.03;;;4.40;99.90;3.50;99110;;;;585750;241;24110;-79
2023/03/27 06:51:05;;;;;;;1.93;1.83;;;4.40;99.90;3.50;99112;;;;585676;241;24080;-76
2023/03/27 06:53:32;;;;;;;2.20;1.70;;;4.40;99.90;3.50;99123;;;;585380;241;24054;-75
2023/03/27 06:56:01;;;;;;;5.12;3.50;;;4.50;99.90;3.50;99129;;;;580214;241;35062;-75
2023/03/27 06:58:29;;;;;;;5.07;3.60;;;4.50;99.90;3.50;99133;;;;579979;241;35170;-75
2023/03/27 07:00:57;;;;;;;3.73;2.60;;;4.50;99.90;3.50;99134;;;;584907;241;24079;-75
2023/03/27 07:03:25;;;;;;;3.23;2.97;;;4.40;99.90;3.40;99134;;;;584788;241;24109;-76
2023/03/27 07:05:53;;;;;;;4.73;3.10;;;4.30;99.90;3.30;99141;;;;584944;241;24069;-75
2023/03/27 07:08:21;;;;;;;5.13;3.07;;;4.20;99.90;3.20;99153;;;;584881;241;24106;-75
2023/03/27 07:10:49;;;;;;;4.50;1.73;;;4.20;99.90;3.10;99153;;;;585018;241;24054;-75
2023/03/27 07:13:18;;;;;;;1.67;1.50;;;3.90;99.90;2.90;99165;;;;584716;241;24137;-74
2023/03/27 07:15:46;;;;;;;1.20;1.20;;;3.90;99.90;2.70;99173;;;;585001;241;24141;-75
2023/03/27 07:18:16;;;;;;;1.30;1.20;;;3.70;99.90;2.40;99180;;;;584849;241;24073;-75
2023/03/27 07:20:42;;;;;;;0.77;0.77;;;3.50;99.90;2.00;99182;;;;586194;240;26320;-75
2023/03/27 07:23:10;;;;;;;1.17;0.87;;;3.10;99.90;1.60;99181;;;;586009;240;24091;-78
2023/03/27 07:25:38;;;;;;;1.07;1.00;;;2.50;99.90;1.40;99179;;;;583962;241;24089;-77
2023/03/27 07:28:06;;;;;;;0.70;0.70;;;2.50;99.90;1.20;99185;;;;575157;245;24105;-73
2023/03/27 07:30:34;;;;;;;2.10;0.70;;;2.30;99.90;1.20;99188;;;;583958;241;24114;-80
2023/03/27 07:33:02;;;;;;;1.13;1.07;;;2.20;99.90;1.10;99192;;;;575175;245;24082;-79
2023/03/27 07:35:30;;;;;;;1.10;1.10;;;2.10;99.90;1.10;99191;;;;594637;241;24101;-76
2023/03/27 07:37:58;;;;;;;2.00;1.80;;;2.20;99.90;1.20;99197;;;;583752;242;24070;-80
2023/03/27 07:40:26;;;;;;;2.60;2.40;;;2.20;99.90;1.40;99201;;;;574846;245;24085;-80
2023/03/27 07:42:54;;;;;;;2.67;2.47;;;2.30;99.90;1.60;99200;;;;583698;242;24070;-79
2023/03/27 07:45:22;;;;;;;4.18;2.90;;;2.50;99.90;1.70;99212;;;;578591;242;35142;-80
2023/03/27 07:47:54;;;;;;;1.80;1.70;;;2.60;99.90;1.80;99213;;;;575091;245;24111;-77
2023/03/27 07:50:19;;;;;;;1.00;1.00;;;2.70;99.90;1.70;99218;;;;583417;245;24184;-76
2023/03/27 07:52:48;;;;;;;1.17;1.07;;;2.80;99.90;1.80;99215;;;;575007;245;24125;-79
2023/03/27 07:55:17;;;;;;;0.90;0.87;;;2.70;99.90;1.90;99219;;;;583949;242;24082;-76
2023/03/27 07:57:52;;;;;;;3.80;1.63;;;2.80;99.90;2.00;99230;;;;583334;242;24096;-75
2023/03/27 08:00:19;;;;;;;4.37;1.63;;;2.90;99.90;2.30;99232;;;;574124;245;24130;-78
2023/03/27 08:02:45;;;;;;;1.37;1.27;;;3.20;99.90;2.50;99244;;;;586570;242;24070;-77
2023/03/27 08:05:12;;;;;;;3.40;1.63;;;3.40;99.90;2.60;99243;;;;573775;246;24109;-75
2023/03/27 08:07:46;;;;;;;4.30;2.00;;;3.50;99.90;2.50;99245;;;;573714;246;24118;-76
2023/03/27 08:10:13;;;;;;;2.00;1.80;;;3.50;99.90;2.50;99254;;;;573667;246;24126;-75
2023/03/27 08:12:38;;;;;;;3.40;1.80;;;3.50;99.90;2.40;99248;;;;573440;246;24107;-75
2023/03/27 08:15:09;;;;;;;3.77;3.43;;;3.40;99.90;2.30;99265;;;;573942;246;24135;-77
2023/03/27 08:17:35;;;;;;;2.63;2.33;;;3.20;99.90;2.20;99277;;;;573547;246;24106;-76
2023/03/27 08:20:07;;;;;;;2.57;2.13;;;3.20;99.90;2.10;99260;;;;574011;246;24106;-76
2023/03/27 08:22:35;;;;;;;2.00;1.90;;;3.10;99.90;2.00;99278;;;;582338;246;24089;-75
2023/03/27 08:25:00;;;;;;;5.00;1.80;;;3.00;99.90;1.90;99278;;;;573509;246;24103;-75
2023/03/27 08:27:27;;;;;;;2.50;2.30;;;3.00;99.90;1.80;99282;;;;573930;246;24076;-75
2023/03/27 08:29:56;;;;;;;5.43;2.30;;;2.90;99.90;1.80;99275;;;;573825;246;24145;-75
2023/03/27 08:32:23;;;;;;;1.60;1.50;;;2.80;99.90;1.90;99287;;;;575362;245;24077;-75
2023/03/27 08:34:55;;;;;;;2.80;1.50;;;2.90;99.90;1.90;99290;;;;574853;245;24120;-74
2023/03/27 08:37:19;;;;;;;1.97;1.70;;;2.90;99.90;2.10;99288;;;;574161;245;24170;-76
2023/03/27 08:39:47;;;;;;;1.67;1.57;;;3.00;99.90;2.10;99305;;;;574682;245;24117;-76
2023/03/27 08:42:18;;;;;;;1.30;1.20;;;3.10;99.90;2.00;99288;;;;574282;245;24151;-76
2023/03/27 08:44:47;;;;;;;1.50;0.90;;;3.10;99.90;2.10;99289;;;;575066;245;24093;-75
2023/03/27 08:47:23;;;;;;;1.20;1.10;;;3.10;99.90;2.10;99309;;;;583937;241;24141;-76
2023/03/27 08:49:51;;;;;;;2.30;1.20;;;3.10;99.90;2.30;99311;;;;592902;238;24181;-77
2023/03/27 08:52:22;;;;;;;1.10;1.00;;;3.30;99.90;2.50;99315;;;;575065;245;24129;-77
2023/03/27 08:54:57;;;;;;;1.37;1.27;;;3.50;99.90;2.70;99315;;;;584028;242;24119;-77
2023/03/27 08:57:20;;;;;;;1.13;1.00;;;3.70;99.90;2.90;99315;;;;574778;245;24159;-77
2023/03/27 08:59:48;;;;;;;1.50;1.30;;;3.90;99.90;3.10;99321;;;;583595;242;24090;-77
2023/03/27 09:02:28;;;;;;;1.00;0.90;;;4.10;99.90;3.20;99322;;;;574588;245;24132;-75
2023/03/27 09:05:09;;;;;;;3.37;1.17;;;4.20;99.90;3.20;99327;;;;584677;241;24100;-76
2023/03/27 09:08:07;;;;;;;6.20;2.20;;;4.30;99.90;3.30;99328;;;;573881;245;24142;-75
2023/03/27 09:11:12;;;;;;;9.83;3.40;;;4.40;99.90;3.60;99333;;;;583869;242;24089;-76
2023/03/27 09:13:42;;;;;;;2.00;1.77;;;4.60;99.90;3.80;99339;;;;583295;245;24088;-76
2023/03/27 09:16:10;;;;;;;5.03;2.80;;;4.90;99.90;4.00;99344;;;;583314;242;24137;-76
2023/03/27 09:18:38;;;;;;;1.23;1.13;;;5.00;99.90;4.50;99362;;;;583232;242;24075;-75
2023/03/27 09:21:16;;;;;;;1.53;1.27;;;6.00;99.90;5.20;99354;;;;582827;242;24106;-76
2023/03/27 09:23:44;;;;;;;1.30;1.13;;;6.00;99.90;5.40;99359;;;;583273;242;24072;-75
2023/03/27 09:26:20;;;;;;;1.93;1.80;;;6.30;99.90;5.30;99355;;;;573654;246;24117;-76
2023/03/27 09:29:04;;;;;;;10.03;3.20;;;6.40;99.90;5.40;99362;;;;582635;246;24119;-75
2023/03/27 09:31:43;;;;;;;1.17;1.10;;;6.40;99.90;5.60;99364;;;;582010;242;24168;-79
2023/03/27 09:34:11;;;;;;;1.37;0.60;;;6.60;99.90;6.30;99375;;;;573629;246;24185;-75
2023/03/27 09:36:39;;;;;;;3.17;1.53;;;7.10;99.90;6.80;99370;;;;574061;246;24085;-78
2023/03/27 09:39:10;;;;;;;1.67;1.50;;;8.70;99.90;8.00;99381;;;;573975;245;24106;-78
2023/03/27 09:41:38;;;;;;;2.37;2.03;;;8.70;99.90;9.70;99390;;;;582974;239;24100;-76
2023/03/27 09:44:06;;;;;;;4.00;2.27;;;10.40;99.90;10.60;99397;;;;576050;245;25277;-75
2023/03/27 09:46:37;;;;;;;1.60;1.40;;;11.40;99.90;11.50;99405;;;;583912;241;24074;-76
2023/03/27 09:49:17;;;;;;;2.37;1.23;;;12.40;99.90;11.00;99400;;;;575215;245;24119;-75
2023/03/27 09:51:48;;;;;;;1.20;0.73;;;12.30;99.90;10.10;99407;;;;575163;245;24145;-76
2023/03/27 09:54:16;;;;;;;1.30;1.10;;;11.70;99.90;9.00;99406;;;;585579;241;24089;-75
2023/03/27 09:56:47;;;;;;;1.83;1.03;;;9.80;99.90;8.30;99400;;;;583887;245;25205;-73
2023/03/27 09:59:33;;;;;;;1.70;1.27;;;9.80;99.90;7.90;99391;;;;582251;241;24082;-75
2023/03/27 10:02:17;;;;;;;11.63;4.17;;;10.70;99.90;10.30;99399;;;;576593;245;46303;-76
2023/03/27 10:05:04;;;;;;;19.13;6.17;;;10.70;99.90;11.50;99413;;;;573621;245;24092;-74
2023/03/27 10:07:31;;;;;;;11.80;5.10;;;12.30;99.90;12.30;99413;;;;583035;242;24154;-76
2023/03/27 10:10:02;;;;;;;11.63;4.97;;;13.30;99.90;11.80;99416;;;;583461;245;24093;-75
2023/03/27 10:12:30;;;;;;;1.70;1.10;;;12.30;99.90;10.50;99424;;;;566063;245;24180;-74
2023/03/27 10:14:58;;;;;;;1.60;1.50;;;12.30;99.90;9.40;99421;;;;592785;242;24077;-75
2023/03/27 10:17:29;;;;;;;1.70;1.60;;;11.20;99.90;8.40;99417;;;;574883;245;24056;-76
2023/03/27 10:20:10;;;;;;;2.17;1.20;;;9.10;99.90;7.50;99414;;;;573859;245;24136;-76
2023/03/27 10:22:43;;;;;;;0.60;0.60;;;9.10;99.90;7.20;99428;;;;574260;241;24100;-78
2023/03/27 10:25:18;;;;;;;3.03;1.20;;;8.50;99.90;6.90;99432;;;;592335;239;24071;-75
2023/03/27 10:27:45;;;;;;;5.47;1.60;;;8.20;99.90;6.80;99424;;;;574899;245;24115;-76
2023/03/27 10:30:32;;;;;;;1.60;0.60;;;7.80;99.90;6.70;99425;;;;592695;242;24074;-75
2023/03/27 10:33:02;;;;;;;8.93;2.00;;;7.70;99.90;6.40;99421;;;;583751;245;24098;-75
2023/03/27 10:35:26;;;;;;;4.37;1.80;;;7.40;99.90;6.30;99440;;;;594040;241;24078;-76
2023/03/27 10:37:59;;;;;;;0.60;0.60;;;7.40;99.90;6.40;99427;;;;583819;242;24079;-77
2023/03/27 10:40:35;;;;;;;10.43;3.43;;;7.30;99.90;6.50;99432;;;;574706;245;24093;-75
2023/03/27 10:43:03;;;;;;;3.40;1.17;;;7.50;99.90;6.70;99448;;;;574130;245;24105;-77
2023/03/27 10:45:35;;;;;;;5.13;2.37;;;7.60;99.90;6.70;99451;;;;583516;242;24077;-76
2023/03/27 10:48:00;;;;;;;4.07;1.87;;;7.60;99.90;6.70;99456;;;;583066;242;24071;-75
2023/03/27 10:50:46;;;;;;;0.77;0.77;;;7.60;99.90;6.60;99472;;;;584050;242;24075;-78
2023/03/27 10:53:22;;;;;;;0.80;0.80;;;7.60;99.90;6.30;99483;;;;584851;243;24094;-76
2023/03/27 10:55:59;;;;;;;0.70;0.70;;;7.40;99.90;6.00;99486;;;;581685;240;34959;-76
2023/03/27 10:58:32;;;;;;;4.10;1.20;;;7.10;99.90;6.00;99483;;;;575605;245;24100;-75
2023/03/27 11:01:29;;;;;;;4.03;0.93;;;7.00;99.90;6.20;99480;;;;584038;241;24077;-75
2023/03/27 11:04:04;;;;;;;3.97;1.83;;;7.10;99.90;6.20;99476;;;;583673;241;24095;-75
2023/03/27 11:06:32;;;;;;;6.20;2.23;;;7.10;99.90;6.10;99480;;;;584596;241;24049;-75
2023/03/27 11:09:09;;;;;;;0.80;0.80;;;7.00;99.90;6.00;99479;;;;575065;245;24095;-75
2023/03/27 11:11:40;;;;;;;1.93;0.87;;;6.90;99.90;5.90;99482;;;;592904;239;24107;-75
2023/03/27 11:14:20;;;;;;;3.83;2.30;;;6.80;99.90;5.80;99486;;;;583897;242;24081;-75
2023/03/27 11:17:02;;;;;;;1.87;1.30;;;6.70;99.90;5.50;99504;;;;575039;245;24166;-74
2023/03/27 11:19:28;;;;;;;1.07;1.07;;;6.60;99.90;5.20;99521;;;;583767;242;24064;-74
2023/03/27 11:21:58;;;;;;;1.20;0.53;;;6.30;99.90;4.60;99521;;;;584886;245;24116;-75
2023/03/27 11:24:29;;;;;;;0.57;0.57;;;5.80;99.90;4.20;99513;;;;574114;245;24124;-73
2023/03/27 11:27:05;;;;;;;1.50;0.67;;;5.40;99.90;3.90;99518;;;;574260;245;24102;-74
2023/03/27 11:29:34;;;;;;;4.73;1.17;;;5.10;99.90;3.70;99514;;;;574088;246;24092;-74
2023/03/27 11:32:07;;;;;;;13.83;2.57;;;4.80;99.90;3.70;99517;;;;574047;246;24099;-76
2023/03/27 11:34:38;;;;;;;5.83;2.67;;;4.70;99.90;3.60;99523;;;;572260;246;24113;-75
2023/03/27 11:37:15;;;;;;;10.43;5.80;;;4.60;99.90;3.70;99526;;;;583293;242;24111;-78
2023/03/27 11:39:45;;;;;;;0.63;0.63;;;4.70;99.90;3.90;99534;;;;574081;245;24180;-74
2023/03/27 11:42:16;;;;;;;1.40;0.60;;;4.80;99.90;4.00;99530;;;;594685;237;24104;-75
2023/03/27 11:44:44;;;;;;;3.40;1.03;;;4.90;99.90;4.10;99548;;;;585098;241;24155;-79
2023/03/27 11:47:49;;;;;;;12.87;2.20;;;5.10;99.90;4.10;99554;;;;585062;241;24184;-79
2023/03/27 11:50:19;;;;;;;3.93;1.93;;;5.00;99.90;4.00;99532;;;;585049;241;24070;-80